Lovelady, Texas
Current Conditions -  °F | °C
As of 11:55 PM on Thursday 27 Nov 2014 (Local Time) from KDKR Reporting Station
Clear Clear  
Wind Chill: 44°   Ceiling: Unl
Heat Index: 46°   Visibility: 10mi
Dew Point: 37°   Wind: 5mph
Humidity: 71%   Direction: 130°SE
Pressure: 30.42"   Gusts: NA
Location:  31.13°N, 95.45°W
Report Text: KDKR 280555Z AUTO 13004KT 10SM CLR 08/03 A3042 RMK AO2
Loading
Personal Weather Stations






























Interactive Weather Map New forecast layout! Learn more

10-Day Weather Forecast

Advertisements
Track Severe Weather on mobile